createdAt,value
2023-04-26T00:00:32.007Z,35.23
2023-04-26T00:01:32.022Z,35.92
2023-04-26T00:02:32.101Z,36.13
2023-04-26T00:03:32.123Z,38.28
2023-04-26T00:04:32.350Z,40.57
2023-04-26T00:05:32.111Z,41.01
2023-04-26T00:06:32.107Z,41.66
2023-04-26T00:07:32.108Z,41.49
2023-04-26T00:08:32.149Z,40.86
2023-04-26T00:09:32.188Z,40.77
2023-04-26T00:10:32.197Z,39.42
2023-04-26T00:11:32.223Z,39.47
2023-04-26T00:12:32.228Z,40.18
2023-04-26T00:13:32.273Z,39.14
2023-04-26T00:14:32.297Z,39.54
2023-04-26T00:15:32.300Z,39.92
2023-04-26T00:16:32.322Z,40.32
2023-04-26T00:17:32.348Z,40.62
2023-04-26T00:18:32.391Z,41.57
2023-04-26T00:19:32.373Z,40.97
2023-04-26T00:20:32.434Z,43.68
2023-04-26T00:21:32.436Z,45.58
2023-04-26T00:22:32.481Z,46.39
2023-04-26T00:23:32.473Z,47.29
2023-04-26T00:24:32.524Z,48.05
2023-04-26T00:25:32.531Z,46.74
2023-04-26T00:26:32.569Z,46.14
2023-04-26T00:27:32.564Z,46.14
2023-04-26T00:28:32.588Z,45.86
2023-04-26T00:29:32.639Z,44.78
2023-04-26T00:30:32.662Z,44.46
2023-04-26T00:31:32.756Z,44.08
2023-04-26T00:32:32.741Z,44.09
2023-04-26T00:33:32.725Z,44.28
2023-04-26T00:34:33.248Z,43.90
2023-04-26T00:35:32.783Z,45.07
2023-04-26T00:36:32.807Z,44.40
2023-04-26T00:37:32.840Z,46.12
2023-04-26T00:38:32.851Z,44.30
2023-04-26T00:39:32.867Z,44.65
2023-04-26T00:40:32.897Z,46.22
2023-04-26T00:41:32.948Z,47.19
2023-04-26T00:42:32.974Z,47.46
2023-04-26T00:43:33.031Z,47.89
2023-04-26T00:44:33.027Z,49.26
2023-04-26T00:45:33.140Z,49.18
2023-04-26T00:46:33.101Z,50.02
2023-04-26T00:47:33.175Z,51.12
2023-04-26T00:48:33.164Z,51.67
2023-04-26T00:49:33.176Z,51.55
2023-04-26T00:50:33.248Z,52.18
2023-04-26T00:51:33.262Z,53.62
2023-04-26T00:52:33.319Z,55.77
2023-04-26T00:53:33.311Z,58.95
2023-04-26T00:54:33.364Z,60.20
2023-04-26T00:55:33.459Z,59.82
2023-04-26T00:56:33.416Z,59.81
2023-04-26T00:57:33.459Z,61.17
2023-04-26T00:58:33.480Z,61.61
2023-04-26T00:59:33.518Z,61.46
2023-04-26T01:00:33.567Z,60.84
2023-04-26T01:01:33.741Z,62.79
2023-04-26T01:02:33.741Z,63.97
2023-04-26T01:03:33.754Z,66.18
2023-04-26T01:04:33.778Z,68.44
2023-04-26T01:05:33.729Z,69.82
2023-04-26T01:06:33.759Z,69.53
2023-04-26T01:07:33.828Z,68.87
2023-04-26T01:08:33.808Z,68.79
2023-04-26T01:09:33.875Z,68.55
2023-04-26T01:10:33.860Z,68.27
2023-04-26T01:11:33.892Z,69.01
2023-04-26T01:12:33.914Z,68.17
2023-04-26T01:13:33.948Z,67.08
2023-04-26T01:14:33.998Z,67.19
2023-04-26T01:15:34.038Z,67.65
2023-04-26T01:16:34.119Z,68.64
2023-04-26T01:17:34.111Z,68.04
2023-04-26T01:18:34.098Z,67.77
2023-04-26T01:19:34.117Z,69.17
2023-04-26T01:20:34.204Z,69.66
2023-04-26T01:21:34.222Z,68.57
2023-04-26T01:22:34.248Z,68.68
2023-04-26T01:23:34.253Z,69.73
2023-04-26T01:24:34.306Z,68.71
2023-04-26T01:25:34.334Z,70.04
2023-04-26T01:26:34.384Z,71.29
2023-04-26T01:27:34.392Z,72.18
2023-04-26T01:28:34.426Z,72.53
2023-04-26T01:29:34.481Z,72.57
2023-04-26T01:30:34.505Z,72.94
2023-04-26T01:31:34.574Z,73.14
2023-04-26T01:32:34.628Z,72.94
2023-04-26T01:33:34.601Z,72.88
2023-04-26T01:34:34.656Z,71.65
2023-04-26T01:35:34.691Z,72.44
2023-04-26T01:36:34.725Z,70.68
2023-04-26T01:37:34.734Z,72.63
2023-04-26T01:38:34.776Z,71.64
2023-04-26T01:39:34.801Z,71.17
2023-04-26T01:40:34.865Z,69.27
2023-04-26T01:41:34.920Z,70.03
2023-04-26T01:42:34.891Z,67.63
2023-04-26T01:43:34.911Z,68.27
2023-04-26T01:44:34.951Z,67.61
2023-04-26T01:45:35.049Z,67.60
2023-04-26T01:46:35.094Z,67.42
2023-04-26T01:47:35.104Z,67.51
2023-04-26T01:48:35.077Z,67.46
2023-04-26T01:49:35.139Z,66.42
2023-04-26T01:50:35.152Z,67.27
2023-04-26T01:51:35.174Z,67.74
2023-04-26T01:52:35.225Z,67.69
2023-04-26T01:53:35.296Z,68.86
2023-04-26T01:54:35.273Z,69.20
2023-04-26T01:55:35.325Z,70.05
2023-04-26T01:56:35.369Z,69.69
2023-04-26T01:57:35.385Z,69.42
2023-04-26T01:58:35.442Z,70.58
2023-04-26T01:59:35.461Z,70.39
2023-04-26T02:00:35.488Z,71.33
2023-04-26T02:01:35.587Z,72.39
2023-04-26T02:02:35.730Z,74.28
2023-04-26T02:03:35.672Z,75.95
2023-04-26T02:04:35.684Z,75.60
2023-04-26T02:05:35.695Z,75.50
2023-04-26T02:06:35.788Z,74.33
2023-04-26T02:07:35.806Z,74.36
2023-04-26T02:08:35.854Z,73.57
2023-04-26T02:09:35.912Z,72.09
2023-04-26T02:10:35.926Z,72.27
2023-04-26T02:11:35.986Z,70.87
2023-04-26T02:12:36.019Z,70.81
2023-04-26T02:13:36.058Z,70.48
2023-04-26T02:14:36.113Z,70.89
2023-04-26T02:15:36.159Z,69.91
2023-04-26T02:16:36.273Z,70.59
2023-04-26T02:17:36.272Z,70.42
2023-04-26T02:18:36.308Z,71.02
2023-04-26T02:19:36.320Z,71.26
2023-04-26T02:20:36.367Z,71.18
2023-04-26T02:21:36.427Z,72.45
2023-04-26T02:22:36.461Z,72.93
2023-04-26T02:23:36.468Z,73.48
2023-04-26T02:24:36.518Z,74.28
2023-04-26T02:25:36.599Z,74.41
2023-04-26T02:26:36.609Z,76.30
2023-04-26T02:27:36.701Z,81.65
2023-04-26T02:28:36.740Z,85.46
2023-04-26T02:29:44.496Z,86.14
2023-04-26T02:30:37.789Z,86.21
2023-04-26T02:31:36.794Z,86.48
2023-04-26T02:32:36.803Z,87.10
2023-04-26T02:33:36.765Z,88.18
2023-04-26T02:34:36.756Z,89.37
2023-04-26T02:35:36.770Z,89.49
2023-04-26T02:36:36.699Z,91.46
2023-04-26T02:37:36.737Z,91.48
2023-04-26T02:38:36.770Z,93.75
2023-04-26T02:39:36.732Z,95.34
2023-04-26T02:40:36.797Z,98.86
2023-04-26T02:41:36.832Z,99.33
2023-04-26T02:42:36.916Z,99.03
2023-04-26T02:43:36.926Z,98.54
2023-04-26T02:44:37.023Z,98.80
2023-04-26T02:45:37.047Z,97.61
2023-04-26T02:46:37.105Z,98.11
2023-04-26T02:47:37.169Z,98.33
2023-04-26T02:48:37.188Z,98.53
2023-04-26T02:49:37.252Z,98.23
2023-04-26T02:50:37.330Z,95.26
2023-04-26T02:51:37.396Z,94.65
2023-04-26T02:52:37.410Z,92.54
2023-04-26T02:53:37.525Z,93.41
2023-04-26T02:54:37.589Z,92.10
2023-04-26T02:55:37.604Z,90.52
2023-04-26T02:56:37.681Z,90.78
2023-04-26T02:57:37.688Z,89.68
2023-04-26T02:58:37.736Z,88.94
2023-04-26T02:59:37.808Z,88.14
2023-04-26T03:00:37.886Z,88.56
2023-04-26T03:01:37.970Z,88.62
2023-04-26T03:02:38.100Z,87.92
2023-04-26T03:03:38.296Z,87.27
2023-04-26T03:04:38.124Z,86.69
2023-04-26T03:05:38.153Z,86.61
2023-04-26T03:06:38.231Z,86.60
2023-04-26T03:07:38.278Z,86.27
2023-04-26T03:08:38.346Z,87.51
2023-04-26T03:09:38.369Z,87.15
2023-04-26T03:10:38.448Z,87.20
2023-04-26T03:11:38.505Z,87.78
2023-04-26T03:12:38.585Z,89.58
2023-04-26T03:13:38.627Z,87.62
2023-04-26T03:14:38.688Z,87.43
2023-04-26T03:15:38.745Z,87.61
2023-04-26T03:16:38.806Z,86.69
2023-04-26T03:17:38.904Z,86.92
2023-04-26T03:18:38.958Z,86.88
2023-04-26T03:19:38.998Z,87.56
2023-04-26T03:20:39.050Z,86.71
2023-04-26T03:21:39.138Z,88.11
2023-04-26T03:22:39.191Z,89.81
2023-04-26T03:23:39.273Z,89.42
2023-04-26T03:24:39.336Z,89.18
2023-04-26T03:25:39.413Z,91.79
2023-04-26T03:26:39.456Z,92.31
2023-04-26T03:27:39.498Z,92.97
2023-04-26T03:28:39.569Z,92.89
2023-04-26T03:29:40.067Z,94.15
2023-04-26T03:30:39.698Z,93.26
2023-04-26T03:31:39.772Z,93.69
2023-04-26T03:32:39.840Z,93.26
2023-04-26T03:33:39.827Z,93.81
2023-04-26T03:34:39.904Z,93.45
2023-04-26T03:35:39.923Z,94.55
2023-04-26T03:36:39.971Z,94.13
2023-04-26T03:37:40.229Z,93.04
2023-04-26T03:38:40.121Z,93.60
2023-04-26T03:39:40.195Z,94.17
2023-04-26T03:40:40.259Z,94.37
2023-04-26T03:41:40.298Z,95.35
2023-04-26T03:42:40.333Z,96.64
2023-04-26T03:43:40.328Z,96.84
2023-04-26T03:44:40.335Z,96.84
2023-04-26T03:45:40.458Z,96.68
2023-04-26T03:46:40.417Z,96.14
2023-04-26T03:47:40.452Z,97.70
2023-04-26T03:48:40.474Z,99.11
2023-04-26T03:49:40.563Z,100.73
2023-04-26T03:50:40.650Z,99.82
2023-04-26T03:51:40.721Z,101.85
2023-04-26T03:52:40.761Z,99.31
2023-04-26T03:53:40.798Z,100.07
2023-04-26T03:54:40.826Z,100.11
2023-04-26T03:55:40.820Z,100.57
2023-04-26T03:56:40.824Z,99.83
2023-04-26T03:57:40.823Z,101.06
2023-04-26T03:58:40.898Z,101.34
2023-04-26T03:59:40.922Z,101.51
2023-04-26T04:00:40.924Z,104.26
2023-04-26T04:01:40.918Z,106.13
2023-04-26T04:02:41.051Z,109.02
2023-04-26T04:03:41.718Z,110.23
2023-04-26T04:04:41.059Z,113.14
2023-04-26T04:05:41.023Z,113.28
2023-04-26T04:06:40.916Z,114.82
2023-04-26T04:07:40.949Z,117.98
2023-04-26T04:08:41.047Z,119.13
2023-04-26T04:09:41.125Z,120.30
2023-04-26T04:10:41.217Z,122.20
2023-04-26T04:11:41.128Z,124.09
2023-04-26T04:12:41.142Z,126.00
2023-04-26T04:13:41.139Z,127.52
2023-04-26T04:14:41.135Z,129.48
2023-04-26T04:15:41.282Z,131.36
2023-04-26T04:16:41.330Z,134.49
2023-04-26T04:17:41.490Z,136.43
2023-04-26T04:18:41.538Z,137.60
2023-04-26T04:19:41.539Z,139.62
2023-04-26T04:20:41.623Z,141.90
2023-04-26T04:21:41.569Z,143.37
2023-04-26T04:22:41.594Z,139.97
2023-04-26T04:23:41.571Z,140.82
2023-04-26T04:24:41.605Z,140.94
2023-04-26T04:25:41.732Z,143.54
2023-04-26T04:26:41.825Z,143.94
2023-04-26T04:27:41.902Z,143.43
2023-04-26T04:28:42.011Z,146.14
2023-04-26T04:29:42.055Z,151.20
2023-04-26T04:30:42.102Z,153.85
2023-04-26T04:31:42.193Z,155.74
2023-04-26T04:32:42.106Z,155.43
2023-04-26T04:33:42.062Z,154.19
2023-04-26T04:34:42.043Z,154.44
2023-04-26T04:35:42.178Z,155.58
2023-04-26T04:36:42.183Z,154.39
2023-04-26T04:37:42.168Z,154.16
2023-04-26T04:38:42.141Z,155.15
2023-04-26T04:39:42.167Z,157.97
2023-04-26T04:40:42.196Z,157.60
2023-04-26T04:41:42.202Z,158.56
2023-04-26T04:42:42.297Z,160.29
2023-04-26T04:43:42.381Z,163.65
2023-04-26T04:44:42.507Z,164.02
2023-04-26T04:45:42.596Z,162.64
2023-04-26T04:46:42.706Z,165.17
2023-04-26T04:47:42.713Z,166.15
2023-04-26T04:48:42.654Z,166.63
2023-04-26T04:49:42.673Z,170.18
2023-04-26T04:50:42.730Z,172.63
2023-04-26T04:51:42.769Z,176.07
2023-04-26T04:52:42.858Z,184.34
2023-04-26T04:53:42.937Z,186.64
2023-04-26T04:54:42.993Z,188.89
2023-04-26T04:55:43.022Z,187.58
2023-04-26T04:56:43.075Z,184.29
2023-04-26T04:57:43.307Z,187.62
2023-04-26T04:58:43.233Z,189.64
2023-04-26T04:59:43.230Z,192.76
2023-04-26T05:00:43.307Z,193.37
2023-04-26T05:01:43.345Z,193.74
2023-04-26T05:02:43.456Z,198.01
2023-04-26T05:03:43.571Z,198.37
2023-04-26T05:04:43.577Z,196.75
2023-04-26T05:05:43.576Z,196.94
2023-04-26T05:06:43.626Z,196.47
2023-04-26T05:07:43.670Z,196.40
2023-04-26T05:08:43.740Z,195.14
2023-04-26T05:09:43.800Z,194.67
2023-04-26T05:10:43.836Z,195.70
2023-04-26T05:11:43.889Z,198.57
2023-04-26T05:12:43.973Z,197.89
2023-04-26T05:13:44.005Z,197.74
2023-04-26T05:14:44.083Z,195.10
2023-04-26T05:15:44.158Z,193.99
2023-04-26T05:16:44.263Z,194.47
2023-04-26T05:17:44.278Z,193.64
2023-04-26T05:18:44.271Z,192.43
2023-04-26T05:19:44.299Z,194.44
2023-04-26T05:20:44.388Z,195.25
2023-04-26T05:21:44.421Z,195.21
2023-04-26T05:22:44.465Z,193.89
2023-04-26T05:23:44.505Z,192.93
2023-04-26T05:24:44.565Z,192.39
2023-04-26T05:25:44.579Z,193.11
2023-04-26T05:26:44.670Z,192.07
2023-04-26T05:27:44.686Z,190.45
2023-04-26T05:28:44.744Z,192.03
2023-04-26T05:29:44.752Z,191.32
2023-04-26T05:30:44.801Z,193.65
2023-04-26T05:31:44.890Z,196.81
2023-04-26T05:32:44.892Z,197.50
2023-04-26T05:33:44.958Z,198.29
2023-04-26T05:34:44.976Z,199.66
2023-04-26T05:35:45.023Z,202.50
2023-04-26T05:36:45.052Z,205.61
2023-04-26T05:37:45.072Z,206.89
2023-04-26T05:38:45.131Z,209.94
2023-04-26T05:39:45.135Z,213.75
2023-04-26T05:40:45.177Z,214.48
2023-04-26T05:41:45.170Z,225.88
2023-04-26T05:42:45.194Z,228.64
2023-04-26T05:43:45.208Z,231.69
2023-04-26T05:44:45.214Z,237.58
2023-04-26T05:45:45.274Z,243.22
2023-04-26T05:46:45.220Z,245.32
2023-04-26T05:47:45.283Z,249.47
2023-04-26T05:48:45.272Z,250.00
2023-04-26T05:49:45.329Z,250.00
2023-04-26T05:50:45.408Z,249.78
2023-04-26T05:51:45.464Z,250.00
2023-04-26T05:52:45.494Z,250.29
2023-04-26T05:53:45.549Z,249.68
2023-04-26T05:54:45.637Z,247.39
2023-04-26T05:55:45.896Z,245.80
2023-04-26T05:56:45.733Z,248.38
2023-04-26T05:57:45.806Z,250.84
2023-04-26T05:58:45.813Z,249.71
2023-04-26T05:59:45.877Z,250.00
2023-04-26T06:00:46.348Z,248.56
2023-04-26T06:01:45.925Z,250.00
2023-04-26T06:02:46.135Z,250.12
2023-04-26T06:03:46.264Z,249.50
2023-04-26T06:04:46.105Z,250.35
2023-04-26T06:05:46.060Z,249.61
2023-04-26T06:06:46.033Z,250.00
2023-04-26T06:07:46.053Z,250.00
2023-04-26T06:08:46.063Z,250.00
2023-04-26T06:09:46.061Z,250.00
2023-04-26T06:10:46.062Z,249.32
2023-04-26T06:11:46.072Z,249.65
2023-04-26T06:12:46.078Z,249.47
2023-04-26T06:13:46.165Z,250.41
2023-04-26T06:14:46.250Z,247.96
2023-04-26T06:15:46.297Z,249.57
2023-04-26T06:16:46.363Z,249.53
2023-04-26T06:17:46.431Z,247.64
2023-04-26T06:18:46.449Z,250.00
2023-04-26T06:19:46.506Z,249.05
2023-04-26T06:20:46.557Z,249.34
2023-04-26T06:21:46.612Z,248.33
2023-04-26T06:22:46.637Z,249.94
2023-04-26T06:23:46.672Z,249.36
2023-04-26T06:24:46.722Z,249.98
2023-04-26T06:25:46.817Z,250.02
2023-04-26T06:26:46.833Z,248.50
2023-04-26T06:27:46.885Z,248.80
2023-04-26T06:28:46.892Z,249.23
2023-04-26T06:29:46.945Z,248.98
2023-04-26T06:30:46.989Z,249.04
2023-04-26T06:31:46.992Z,249.13
2023-04-26T06:32:47.130Z,249.47
2023-04-26T06:33:47.058Z,249.74
2023-04-26T06:34:47.094Z,249.29
2023-04-26T06:35:47.398Z,247.81
2023-04-26T06:36:47.141Z,248.76
2023-04-26T06:37:47.178Z,248.14
2023-04-26T06:38:47.199Z,249.82
2023-04-26T06:39:47.207Z,248.90
2023-04-26T06:40:47.239Z,249.03
2023-04-26T06:41:47.252Z,249.56
2023-04-26T06:42:47.244Z,249.37
2023-04-26T06:43:47.281Z,248.58
2023-04-26T06:44:47.274Z,248.39
2023-04-26T06:45:47.377Z,248.31
2023-04-26T06:46:47.350Z,247.82
2023-04-26T06:47:47.451Z,247.76
2023-04-26T06:48:47.388Z,248.09
2023-04-26T06:49:47.394Z,241.67
2023-04-26T06:50:47.483Z,239.67
2023-04-26T06:51:47.450Z,229.19
2023-04-26T06:52:47.484Z,220.36
2023-04-26T06:53:47.486Z,228.22
2023-04-26T06:54:56.393Z,240.16
2023-04-26T06:55:48.536Z,240.33
2023-04-26T06:56:47.525Z,241.56
2023-04-26T06:57:47.529Z,245.01
2023-04-26T06:58:47.506Z,249.99
2023-04-26T06:59:47.489Z,258.02
2023-04-26T07:00:47.495Z,252.47
2023-04-26T07:01:47.494Z,249.98
2023-04-26T07:02:47.562Z,249.73
2023-04-26T07:03:47.620Z,249.30
2023-04-26T07:04:47.781Z,249.34
2023-04-26T07:05:47.896Z,249.86
2023-04-26T07:06:47.468Z,250.00
2023-04-26T07:07:47.502Z,249.45
2023-04-26T07:08:47.469Z,250.00
2023-04-26T07:09:47.461Z,249.52
2023-04-26T07:10:47.489Z,249.65
2023-04-26T07:11:47.436Z,249.81
2023-04-26T07:12:47.433Z,249.68
2023-04-26T07:13:47.436Z,249.69
2023-04-26T07:14:47.423Z,248.80
2023-04-26T07:15:47.933Z,250.00
2023-04-26T07:16:47.537Z,250.00
2023-04-26T07:17:47.588Z,249.72
2023-04-26T07:18:47.587Z,250.00
2023-04-26T07:19:47.660Z,248.94
2023-04-26T07:20:47.725Z,249.09
2023-04-26T07:21:47.795Z,249.40
2023-04-26T07:22:47.945Z,249.84
2023-04-26T07:23:47.944Z,249.95
2023-04-26T07:24:47.934Z,249.92
2023-04-26T07:25:48.000Z,250.00
2023-04-26T07:26:48.051Z,249.95
2023-04-26T07:27:48.103Z,249.59
2023-04-26T07:28:48.140Z,249.77
2023-04-26T07:29:48.162Z,249.94
2023-04-26T07:30:48.279Z,249.96
2023-04-26T07:31:48.251Z,250.00
2023-04-26T07:32:48.340Z,249.72
2023-04-26T07:33:48.356Z,249.36
2023-04-26T07:34:48.318Z,250.00
2023-04-26T07:35:48.387Z,249.48
2023-04-26T07:36:48.428Z,250.00
2023-04-26T07:37:48.449Z,250.00
2023-04-26T07:38:48.506Z,249.91
2023-04-26T07:39:48.513Z,250.00
2023-04-26T07:40:48.909Z,250.00
2023-04-26T07:41:48.542Z,249.98
2023-04-26T07:42:48.578Z,250.00
2023-04-26T07:43:48.630Z,249.57
2023-04-26T07:44:48.737Z,249.72
2023-04-26T07:45:48.702Z,249.84
2023-04-26T07:46:48.710Z,248.80
2023-04-26T07:47:48.758Z,248.65
2023-04-26T07:48:48.753Z,247.80
2023-04-26T07:49:48.768Z,247.39
2023-04-26T07:50:48.916Z,247.03
2023-04-26T07:51:50.487Z,244.82
2023-04-26T07:52:48.887Z,243.41
2023-04-26T07:53:48.910Z,243.29
2023-04-26T07:54:49.007Z,243.01
2023-04-26T07:55:49.424Z,243.11
2023-04-26T07:56:49.032Z,242.18
2023-04-26T07:57:49.038Z,241.67
2023-04-26T07:58:49.128Z,241.65
2023-04-26T07:59:49.175Z,240.49
2023-04-26T08:00:49.199Z,240.11
2023-04-26T08:01:49.278Z,239.97
2023-04-26T08:02:49.440Z,239.08
2023-04-26T08:03:49.558Z,239.06
2023-04-26T08:04:49.631Z,239.21
2023-04-26T08:05:49.638Z,239.15
2023-04-26T08:06:49.509Z,239.15
2023-04-26T08:07:49.585Z,239.18
2023-04-26T08:08:49.630Z,238.42
2023-04-26T08:09:49.688Z,238.16
2023-04-26T08:10:49.897Z,237.85
2023-04-26T08:11:49.820Z,236.99
2023-04-26T08:12:49.842Z,236.93
2023-04-26T08:13:49.900Z,236.29
2023-04-26T08:14:49.978Z,236.20
2023-04-26T08:15:49.968Z,235.83
2023-04-26T08:16:50.063Z,235.62
2023-04-26T08:17:50.140Z,235.19
2023-04-26T08:18:50.111Z,234.94
2023-04-26T08:19:50.177Z,234.54
2023-04-26T08:20:50.250Z,234.01
2023-04-26T08:21:50.340Z,234.53
2023-04-26T08:22:50.405Z,235.93
2023-04-26T08:23:50.748Z,235.36
2023-04-26T08:24:50.498Z,235.27
2023-04-26T08:25:50.551Z,235.24
2023-04-26T08:26:50.633Z,233.85
2023-04-26T08:27:50.636Z,233.28
2023-04-26T08:28:50.709Z,232.62
2023-04-26T08:29:51.412Z,231.28
2023-04-26T08:30:50.859Z,230.37
2023-04-26T08:31:50.890Z,229.78
2023-04-26T08:32:50.970Z,230.66
2023-04-26T08:33:51.278Z,231.74
2023-04-26T08:34:51.055Z,230.50
2023-04-26T08:35:51.425Z,229.19
2023-04-26T08:36:51.178Z,228.63
2023-04-26T08:37:51.229Z,227.67
2023-04-26T08:38:51.281Z,227.32
2023-04-26T08:39:51.342Z,227.02
2023-04-26T08:40:51.416Z,226.42
2023-04-26T08:41:51.441Z,225.60
2023-04-26T08:42:51.572Z,225.13
2023-04-26T08:43:51.849Z,225.63
2023-04-26T08:44:51.617Z,225.48
2023-04-26T08:45:52.010Z,224.17
2023-04-26T08:46:51.707Z,223.30
2023-04-26T08:47:51.793Z,223.21
2023-04-26T08:48:51.825Z,222.33
2023-04-26T08:49:51.884Z,222.89
2023-04-26T08:50:52.443Z,223.89
2023-04-26T08:51:51.987Z,223.31
2023-04-26T08:52:52.074Z,223.42
2023-04-26T08:53:52.195Z,222.74
2023-04-26T08:54:52.141Z,222.82
2023-04-26T08:55:52.193Z,222.39
2023-04-26T08:56:52.234Z,221.19
2023-04-26T08:57:52.284Z,220.77
2023-04-26T08:58:52.349Z,218.95
2023-04-26T08:59:52.398Z,218.60
2023-04-26T09:00:52.476Z,218.87
2023-04-26T09:01:52.568Z,217.45
2023-04-26T09:02:53.062Z,217.39
2023-04-26T09:03:52.972Z,216.98
2023-04-26T09:04:52.779Z,217.01
2023-04-26T09:05:52.715Z,217.14
2023-04-26T09:06:52.739Z,218.83
2023-04-26T09:07:52.794Z,217.83
2023-04-26T09:08:52.859Z,217.29
2023-04-26T09:09:52.910Z,217.93
2023-04-26T09:10:52.949Z,217.72
2023-04-26T09:11:52.972Z,216.83
2023-04-26T09:12:53.042Z,217.03
2023-04-26T09:13:53.306Z,217.72
2023-04-26T09:14:53.168Z,217.54
2023-04-26T09:15:53.273Z,216.85
2023-04-26T09:16:53.305Z,215.24
2023-04-26T09:17:53.377Z,215.20
2023-04-26T09:18:53.548Z,214.77
2023-04-26T09:19:53.359Z,215.36
2023-04-26T09:20:53.420Z,216.32
2023-04-26T09:21:53.465Z,216.59
2023-04-26T09:22:53.521Z,216.06
2023-04-26T09:23:53.547Z,215.32
2023-04-26T09:24:53.593Z,215.10
2023-04-26T09:25:53.644Z,213.95
2023-04-26T09:26:53.690Z,213.53
2023-04-26T09:27:53.745Z,213.42
2023-04-26T09:28:53.876Z,213.22
2023-04-26T09:29:53.829Z,213.69
2023-04-26T09:30:53.983Z,212.64
2023-04-26T09:31:53.986Z,212.50
2023-04-26T09:32:53.978Z,211.29
2023-04-26T09:33:54.037Z,211.76
2023-04-26T09:34:54.046Z,214.09
2023-04-26T09:35:54.075Z,216.37
2023-04-26T09:36:54.085Z,218.88
2023-04-26T09:37:58.757Z,220.20
2023-04-26T09:38:55.137Z,220.34
2023-04-26T09:39:54.135Z,221.35
2023-04-26T09:40:54.452Z,223.27
2023-04-26T09:41:54.092Z,228.76
2023-04-26T09:42:54.103Z,235.46
2023-04-26T09:43:54.088Z,235.94
2023-04-26T09:44:54.111Z,236.55
2023-04-26T09:45:54.448Z,236.01
2023-04-26T09:46:54.198Z,236.78
2023-04-26T09:47:54.124Z,236.41
2023-04-26T09:48:54.214Z,235.32
2023-04-26T09:49:54.061Z,234.11
2023-04-26T09:50:54.531Z,232.94
2023-04-26T09:51:54.044Z,232.30
2023-04-26T09:52:54.058Z,231.80
2023-04-26T09:53:55.605Z,231.51
2023-04-26T09:54:54.194Z,232.05
2023-04-26T09:55:54.270Z,232.69
2023-04-26T09:56:54.231Z,233.28
2023-04-26T09:57:54.270Z,234.50
2023-04-26T09:58:56.013Z,235.09
2023-04-26T09:59:55.541Z,235.22
2023-04-26T10:00:54.364Z,234.02
2023-04-26T10:01:54.312Z,233.03
2023-04-26T10:02:54.616Z,233.85
2023-04-26T10:03:54.618Z,233.98
2023-04-26T10:04:54.650Z,233.78
2023-04-26T10:05:54.478Z,233.31
2023-04-26T10:06:54.465Z,232.78
2023-04-26T10:07:54.518Z,228.95
2023-04-26T10:08:54.822Z,227.09
2023-04-26T10:09:55.542Z,226.91
2023-04-26T10:10:54.558Z,226.17
2023-04-26T10:11:54.563Z,225.84
2023-04-26T10:12:54.599Z,225.79
2023-04-26T10:13:54.617Z,225.98
2023-04-26T10:14:54.658Z,225.38
2023-04-26T10:15:54.685Z,225.62
2023-04-26T10:16:54.951Z,228.21
2023-04-26T10:17:54.748Z,230.48
2023-04-26T10:18:55.120Z,230.13
2023-04-26T10:19:54.765Z,230.34
2023-04-26T10:20:54.826Z,231.08
2023-04-26T10:21:54.818Z,230.74
2023-04-26T10:22:54.860Z,229.63
2023-04-26T10:23:54.861Z,229.82
2023-04-26T10:24:54.962Z,227.68
2023-04-26T10:25:54.991Z,226.98
2023-04-26T10:26:55.102Z,226.94
2023-04-26T10:27:54.983Z,227.79
2023-04-26T10:28:58.332Z,227.37
2023-04-26T10:29:56.003Z,227.42
2023-04-26T10:30:55.020Z,227.41
2023-04-26T10:31:55.038Z,227.49
2023-04-26T10:32:55.048Z,227.98
2023-04-26T10:33:54.970Z,229.65
2023-04-26T10:34:54.964Z,229.63
2023-04-26T10:35:54.967Z,229.59
2023-04-26T10:36:54.954Z,228.49
2023-04-26T10:37:54.929Z,228.99
2023-04-26T10:38:55.111Z,230.30
2023-04-26T10:39:54.902Z,231.42
2023-04-26T10:40:55.294Z,233.21
2023-04-26T10:41:54.937Z,232.72
2023-04-26T10:42:54.938Z,231.99
2023-04-26T10:43:55.307Z,231.17
2023-04-26T10:44:54.893Z,230.54
2023-04-26T10:45:54.932Z,229.25
2023-04-26T10:46:54.918Z,229.03
2023-04-26T10:47:54.948Z,228.02
2023-04-26T10:48:55.021Z,228.31
2023-04-26T10:49:54.875Z,228.96
2023-04-26T10:50:54.890Z,228.58
2023-04-26T10:51:54.845Z,226.96
2023-04-26T10:52:55.524Z,226.43
2023-04-26T10:53:55.187Z,225.41
2023-04-26T10:54:54.888Z,224.80
2023-04-26T10:55:54.845Z,223.73
2023-04-26T10:56:54.832Z,223.07
2023-04-26T10:57:54.826Z,222.28
2023-04-26T10:58:54.842Z,221.88
2023-04-26T10:59:55.501Z,221.96
2023-04-26T11:00:54.922Z,221.34
2023-04-26T11:01:55.141Z,222.16
2023-04-26T11:02:55.054Z,221.19
2023-04-26T11:03:55.204Z,221.55
2023-04-26T11:04:55.000Z,219.53
2023-04-26T11:05:54.902Z,219.96
2023-04-26T11:06:54.908Z,219.18
2023-04-26T11:07:54.945Z,218.01
2023-04-26T11:08:55.402Z,217.21
2023-04-26T11:09:54.903Z,216.60
2023-04-26T11:10:54.967Z,216.09
2023-04-26T11:11:54.952Z,215.73
2023-04-26T11:12:54.984Z,214.19
2023-04-26T11:13:54.986Z,214.30
2023-04-26T11:14:54.957Z,211.99
2023-04-26T11:15:55.150Z,211.40
2023-04-26T11:16:54.999Z,209.83
2023-04-26T11:17:55.043Z,209.11
2023-04-26T11:18:55.200Z,208.68
2023-04-26T11:19:54.988Z,209.02
2023-04-26T11:20:55.022Z,209.27
2023-04-26T11:21:56.316Z,209.23
2023-04-26T11:22:55.043Z,209.32
2023-04-26T11:23:55.050Z,209.40
2023-04-26T11:24:55.901Z,208.43
2023-04-26T11:25:55.485Z,209.02
2023-04-26T11:26:55.037Z,208.52
2023-04-26T11:27:55.049Z,208.54
2023-04-26T11:28:55.240Z,208.55
2023-04-26T11:29:55.083Z,208.82
2023-04-26T11:30:55.529Z,207.88
2023-04-26T11:31:55.207Z,206.57
2023-04-26T11:32:55.128Z,206.43
2023-04-26T11:33:55.057Z,208.80
2023-04-26T11:34:55.055Z,207.65
2023-04-26T11:35:55.071Z,207.25
2023-04-26T11:36:55.471Z,208.01
2023-04-26T11:37:55.123Z,208.45
2023-04-26T11:38:55.092Z,208.22
2023-04-26T11:39:55.104Z,208.19
2023-04-26T11:40:55.181Z,207.42
2023-04-26T11:41:55.191Z,207.20
2023-04-26T11:42:55.229Z,208.06
2023-04-26T11:43:55.405Z,206.28
2023-04-26T11:44:55.322Z,206.19
2023-04-26T11:45:55.375Z,206.80
2023-04-26T11:46:55.458Z,206.52
2023-04-26T11:47:55.536Z,205.04
2023-04-26T11:48:55.842Z,202.69
2023-04-26T11:49:55.628Z,206.94
2023-04-26T11:50:55.688Z,204.49
2023-04-26T11:51:55.791Z,204.17
2023-04-26T11:52:55.798Z,205.14
2023-04-26T11:53:55.848Z,205.47
2023-04-26T11:54:55.955Z,204.86
2023-04-26T11:55:56.000Z,204.45
2023-04-26T11:56:56.039Z,204.42
2023-04-26T11:57:56.102Z,204.52
2023-04-26T11:58:56.265Z,202.93
2023-04-26T11:59:56.230Z,203.78
2023-04-26T12:00:56.254Z,201.90
2023-04-26T12:01:56.431Z,202.05
2023-04-26T12:02:56.479Z,203.82
2023-04-26T12:03:56.664Z,203.82
2023-04-26T12:04:56.626Z,203.98
2023-04-26T12:05:56.590Z,202.88
2023-04-26T12:06:56.593Z,203.57
2023-04-26T12:07:56.674Z,202.14
2023-04-26T12:08:56.738Z,202.84
2023-04-26T12:09:58.072Z,202.21
2023-04-26T12:10:56.895Z,204.25
2023-04-26T12:11:56.911Z,202.55
2023-04-26T12:12:57.122Z,203.67
2023-04-26T12:13:56.982Z,201.87
2023-04-26T12:14:57.071Z,202.61
2023-04-26T12:15:57.098Z,201.48
2023-04-26T12:16:57.254Z,201.39
2023-04-26T12:17:57.274Z,202.14
2023-04-26T12:18:57.392Z,203.50
2023-04-26T12:19:57.334Z,203.09
2023-04-26T12:20:57.378Z,202.60
2023-04-26T12:21:57.428Z,202.08
2023-04-26T12:22:57.501Z,203.81
2023-04-26T12:23:57.523Z,205.17
2023-04-26T12:24:57.588Z,204.39
2023-04-26T12:25:57.620Z,209.76
2023-04-26T12:26:58.691Z,204.59
2023-04-26T12:27:57.684Z,203.26
2023-04-26T12:28:57.754Z,202.87
2023-04-26T12:29:57.799Z,202.12
2023-04-26T12:30:57.840Z,201.69
2023-04-26T12:31:57.951Z,202.51
2023-04-26T12:33:05.719Z,201.79
2023-04-26T12:33:58.924Z,201.90
2023-04-26T12:34:57.893Z,201.90
2023-04-26T12:35:57.972Z,201.67